首页
METAR-TAF:

METAR-TAF

机场 :

勒阿弗尔, 法国

纬度: 49-31N, 经度: 000-04E, 海拔: 100米

当前天气观测

该预报发布于19分钟前的08:30 UTC
风速12节,风向西
温度 17°C
湿度 82%
气压 1005 hPa
能见度10公里或以上
散云层高于1900英尺
多云层高于2600英尺
阴天层高于3200英尺

METAR: LFOH 220830Z AUTO 26012KT 9999 SCT019 BKN026 OVC032 17/14 Q1005 TEMPO RA OVC013 BECMG 16010KT

时间: 10:49 (08:49 UTC)

预报

该预报发布于3小时和49分钟前的05:00 UTC
预报有效从22日的 06点(UTC)到 23日的 06点(UTC)
风速10节,风向南转南东
能见度10公里或以上
1500米以下无云,无积雨云
短暂存在
从 22日的 09点(UTC)到 22日的 11点(UTC)
阴天层高于1300英尺
成为
从 22日的 11点(UTC)到 22日的 13点(UTC)
风速10节,风向西南
短暂存在
从 22日的 14点(UTC)到 22日的 20点(UTC)
能見度: 3000
多云层高于3000英尺, 积雨云.
阵雨
成为
从 23日的 03点(UTC)到 23日的 06点(UTC)
多云层高于1300英尺

TAF: LFOH 220500Z 2206/2306 16010KT CAVOK TEMPO 2209/2211 RA OVC013 BECMG 2211/2213 22010KT TEMPO 2214/2220 3000 SHRA BKN030CB BECMG 2303/2306 BKN013

超过4000个机场的气象观测和天气预报(METAR&TAF报告)。

可查询的气象台以黄色和红色小点在地图上表示。

将鼠标移到小点上方,可查看气象台名称。

然后点击查看天气观测和预报。

如需切换地图:点击带黑十字的绿色按钮放大地图;点击带横线的绿色按钮缩小地图;或者点击绿色箭头查看邻近地区的地图。


METAR-TAF: